Time;durP1;ratioP1;P1;durP2;ratioP2;P2;SDS_P1;SDS_P2;PMS_P1;PMS_P2;Temp;Humidity;BMP_temperature;BMP_pressure;BME280_temperature;BME280_humidity;BME280_pressure;Samples;Min_cycle;Max_cycle;Signal;HPM_P1;HPM_P2
2023/03/23 00:00:05;;;;;;;0.10;0.10;;;;;;;14.14;65.97;100209.00;5089052;28;20025;-87
2023/03/23 00:02:35;;;;;;;0.10;0.10;;;;;;;14.19;65.79;100203.47;5086869;28;20036;-88
2023/03/23 00:05:03;;;;;;;0.10;0.10;;;;;;;14.13;65.94;100209.09;5073338;28;20083;-87
2023/03/23 00:07:29;;;;;;;0.13;0.13;;;;;;;14.18;65.68;100202.63;5078717;28;20055;-88
2023/03/23 00:09:56;;;;;;;0.15;0.15;;;;;;;14.26;66.00;100190.78;5080562;28;20024;-87
2023/03/23 00:12:28;;;;;;;0.20;0.20;;;;;;;14.14;65.84;100182.38;5074418;28;20024;-87
2023/03/23 00:14:55;;;;;;;;;;;;;;;14.27;65.53;100184.47;5089084;28;20042;-88
2023/03/23 00:17:23;;;;;;;0.10;0.10;;;;;;;14.20;65.75;100190.09;5081897;28;19935;-88
2023/03/23 00:19:49;;;;;;;0.10;0.10;;;;;;;14.16;65.55;100188.50;5086566;28;20054;-88
2023/03/23 00:22:19;;;;;;;0.30;0.30;;;;;;;14.17;65.58;100182.25;5081723;28;20471;-87
2023/03/23 00:24:45;;;;;;;0.10;0.10;;;;;;;14.18;65.75;100178.66;5080967;28;20024;-89
2023/03/23 00:27:12;;;;;;;0.17;0.17;;;;;;;14.15;65.64;100168.13;5079419;28;20035;-86
2023/03/23 00:29:39;;;;;;;0.30;0.30;;;;;;;14.17;65.46;100162.75;5085745;28;20043;-87
2023/03/23 00:32:06;;;;;;;0.10;0.10;;;;;;;14.18;65.47;100159.13;5079782;28;20089;-88
2023/03/23 00:34:33;;;;;;;0.10;0.10;;;;;;;14.14;65.46;100165.53;5080051;28;20111;-87
2023/03/23 00:37:00;;;;;;;0.10;0.10;;;;;;;14.12;65.67;100160.28;5080389;28;20517;-88
2023/03/23 00:39:27;;;;;;;0.10;0.10;;;;;;;14.14;65.70;100158.41;5079758;28;20028;-88
2023/03/23 00:42:00;;;;;;;0.10;0.10;;;;;;;14.17;65.40;100157.41;5086746;28;20475;-88
2023/03/23 00:44:28;;;;;;;0.10;0.10;;;;;;;14.23;65.45;100163.31;5080308;28;20033;-88
2023/03/23 00:46:56;;;;;;;0.40;0.40;;;;;;;14.15;65.49;100162.78;5083852;28;20051;-89
2023/03/23 00:49:25;;;;;;;0.10;0.10;;;;;;;14.20;65.21;100152.78;5090388;28;20024;-89
2023/03/23 00:51:53;;;;;;;0.10;0.10;;;;;;;14.19;65.32;100142.22;5084844;28;20383;-88
2023/03/23 00:54:19;;;;;;;0.10;0.10;;;;;;;14.13;65.42;100139.81;5078073;28;20020;-89
2023/03/23 00:56:46;;;;;;;0.10;0.10;;;;;;;14.13;65.50;100146.03;5083227;28;20112;-88
2023/03/23 00:59:13;;;;;;;0.20;0.20;;;;;;;14.05;65.41;100148.19;5086945;28;20580;-88
2023/03/23 01:01:39;;;;;;;0.00;0.00;;;;;;;14.06;65.51;100141.91;5086468;28;20039;-89
2023/03/23 01:04:07;;;;;;;0.20;0.20;;;;;;;14.08;65.43;100158.66;5086019;28;20028;-89
2023/03/23 01:06:38;;;;;;;0.45;0.45;;;;;;;14.10;65.15;100148.81;5087153;28;20249;-88
2023/03/23 01:09:05;;;;;;;0.10;0.10;;;;;;;14.06;65.47;100157.91;5095015;28;20033;-89
2023/03/23 01:11:32;;;;;;;0.20;0.20;;;;;;;14.07;65.31;100143.66;5090522;28;20032;-89
2023/03/23 01:13:59;;;;;;;0.10;0.10;;;;;;;14.07;65.35;100125.00;5086898;28;20013;-88
2023/03/23 01:16:26;;;;;;;0.10;0.10;;;;;;;14.01;65.34;100135.94;5081975;28;20028;-89
2023/03/23 01:18:55;;;;;;;0.10;0.10;;;;;;;14.08;65.36;100124.94;5086933;28;20530;-90
2023/03/23 01:21:21;;;;;;;0.10;0.10;;;;;;;14.05;65.37;100124.19;5080654;28;20065;-88
2023/03/23 01:23:48;;;;;;;0.10;0.10;;;;;;;14.05;65.30;100116.22;5086578;28;20054;-88
2023/03/23 01:26:18;;;;;;;0.80;0.80;;;;;;;13.97;65.56;100115.69;5087119;28;20036;-89
2023/03/23 01:28:44;;;;;;;2.65;0.95;;;;;;;13.94;65.71;100118.50;5100928;28;20028;-90
2023/03/23 01:31:14;;;;;;;0.10;0.10;;;;;;;13.99;65.60;100111.16;5099201;28;20020;-90
2023/03/23 01:33:42;;;;;;;0.13;0.13;;;;;;;13.98;65.56;100112.97;5104340;28;20078;-91
2023/03/23 01:36:12;;;;;;;0.10;0.10;;;;;;;13.96;65.60;100111.31;5101686;28;20036;-89
2023/03/23 01:38:39;;;;;;;0.20;0.20;;;;;;;13.89;65.95;100116.94;5105930;28;20054;-91
2023/03/23 01:41:05;;;;;;;0.20;0.20;;;;;;;13.88;65.72;100133.84;5099431;28;20028;-90
2023/03/23 01:43:31;;;;;;;0.43;0.35;;;;;;;14.01;65.27;100114.63;5109157;28;20004;-90
2023/03/23 01:45:58;;;;;;;0.35;0.35;;;;;;;13.86;65.56;100122.38;5114726;28;20036;-90
2023/03/23 01:48:31;;;;;;;0.10;0.10;;;;;;;14.01;65.83;100114.63;5107040;28;20070;-90
2023/03/23 01:51:07;;;;;;;0.40;0.40;;;;;;;14.02;65.60;100103.06;5100812;28;20038;-90
2023/03/23 01:53:42;;;;;;;0.20;0.20;;;;;;;13.97;65.55;100107.69;5102424;28;20024;-90
2023/03/23 01:56:11;;;;;;;0.50;0.50;;;;;;;13.93;65.47;100100.78;5108479;28;20061;-89
2023/03/23 01:58:40;;;;;;;0.10;0.10;;;;;;;14.07;65.48;100093.03;5085202;28;20176;-90
2023/03/23 02:01:11;;;;;;;0.10;0.10;;;;;;;13.96;65.85;100090.88;5094013;28;20165;-89
2023/03/23 02:03:41;;;;;;;0.10;0.10;;;;;;;13.90;66.13;100092.00;5094157;28;20050;-89
2023/03/23 02:06:07;;;;;;;1.23;1.13;;;;;;;13.96;65.75;100096.19;5086291;28;20043;-89
2023/03/23 02:08:35;;;;;;;0.10;0.10;;;;;;;13.98;65.56;100093.44;5091025;28;20030;-90
2023/03/23 02:11:01;;;;;;;0.10;0.10;;;;;;;13.86;66.19;100110.88;5096531;28;20035;-89
2023/03/23 02:13:28;;;;;;;0.20;0.20;;;;;;;13.86;66.32;100098.41;5085619;28;20163;-90
2023/03/23 02:16:06;;;;;;;0.10;0.10;;;;;;;13.90;66.49;100105.31;5081233;28;20107;-89
2023/03/23 02:22:12;;;;;;;0.10;0.10;;;;;;;13.91;66.35;100108.84;5108222;28;20424;-82
2023/03/23 02:25:06;;;;;;;0.40;0.40;;;;;;;14.04;66.14;100103.81;5086044;28;20052;-82
2023/03/23 02:28:04;;;;;;;0.10;0.10;;;;;;;13.89;66.13;100100.94;5082515;28;20040;-82
2023/03/23 02:30:48;;;;;;;0.10;0.10;;;;;;;13.97;66.26;100100.59;5078126;28;20494;-81
2023/03/23 02:39:05;;;;;;;0.10;0.10;;;;;;;13.91;66.79;100093.72;5104331;27;1449825;-82
2023/03/23 02:41:39;;;;;;;0.10;0.10;;;;;;;13.97;65.99;100089.94;5119744;28;20044;-82
2023/03/23 02:44:07;;;;;;;0.10;0.10;;;;;;;14.01;65.69;100088.00;5131308;28;20042;-82
2023/03/23 02:46:35;;;;;;;0.17;0.17;;;;;;;14.07;65.79;100087.72;5131191;28;20044;-83
2023/03/23 02:49:04;;;;;;;3.92;1.30;;;;;;;14.06;65.85;100083.31;5122859;28;20039;-82
2023/03/23 02:51:31;;;;;;;0.30;0.30;;;;;;;13.90;65.97;100078.69;5128562;28;20024;-83
2023/03/23 02:53:59;;;;;;;0.10;0.10;;;;;;;14.06;65.35;100080.66;5125223;27;20492;-81
2023/03/23 02:56:27;;;;;;;0.10;0.10;;;;;;;13.96;66.15;100100.66;5124303;28;20032;-82
2023/03/23 02:58:55;;;;;;;0.10;0.10;;;;;;;14.04;65.42;100093.16;5127769;28;20072;-81
2023/03/23 03:04:14;;;;;;;0.40;0.40;;;;;;;14.14;65.43;100075.81;5100383;27;1184117;-82
2023/03/23 03:07:07;;;;;;;0.40;0.40;;;;;;;14.02;65.71;100106.56;5119846;27;20033;-83
2023/03/23 03:12:41;;;;;;;0.10;0.10;;;;;;;14.10;65.16;100082.22;5100668;27;1438866;-83
2023/03/23 03:15:29;;;;;;;0.10;0.10;;;;;;;14.06;65.47;100080.66;5133502;28;20087;-83
2023/03/23 03:18:12;;;;;;;0.10;0.10;;;;;;;14.05;65.60;100081.59;5123842;28;20075;-82
2023/03/23 03:20:45;;;;;;;0.20;0.20;;;;;;;14.03;66.43;100060.34;5121779;28;20012;-84
2023/03/23 03:23:12;;;;;;;;;;;;;;;14.01;66.26;100082.69;5124852;28;20019;-83
2023/03/23 03:25:47;;;;;;;0.10;0.10;;;;;;;13.85;66.53;100078.03;5139210;27;19912;-81
2023/03/23 03:28:16;;;;;;;0.10;0.10;;;;;;;13.91;66.07;100066.25;5125770;28;20024;-83
2023/03/23 03:30:46;;;;;;;1.65;1.55;;;;;;;14.00;66.40;100064.97;5126310;27;20028;-83
2023/03/23 03:33:12;;;;;;;0.10;0.10;;;;;;;13.97;66.74;100081.06;5128403;27;20107;-80
2023/03/23 03:35:42;;;;;;;0.13;0.13;;;;;;;13.96;66.84;100074.03;5131748;28;20028;-80
2023/03/23 03:38:10;;;;;;;1.92;1.83;;;;;;;13.93;66.53;100079.50;5138983;27;20050;-80
2023/03/23 03:40:37;;;;;;;0.10;0.10;;;;;;;13.85;66.47;100075.38;5135426;27;20032;-81
2023/03/23 03:43:04;;;;;;;0.10;0.10;;;;;;;13.95;66.28;100098.94;5128510;27;20032;-82
2023/03/23 03:45:30;;;;;;;0.10;0.10;;;;;;;13.85;66.55;100072.72;5120584;28;20019;-82
2023/03/23 03:47:56;;;;;;;0.10;0.10;;;;;;;13.82;66.80;100072.88;5130063;27;20026;-83
2023/03/23 03:50:23;;;;;;;0.10;0.10;;;;;;;13.80;67.11;100069.41;5129528;28;20072;-84
2023/03/23 03:52:49;;;;;;;0.10;0.10;;;;;;;13.86;66.27;100068.28;5126968;27;20024;-85
2023/03/23 03:55:16;;;;;;;0.10;0.10;;;;;;;13.78;66.37;100076.59;5126817;27;20392;-85
2023/03/23 03:57:43;;;;;;;0.17;0.17;;;;;;;13.74;66.25;100075.88;5126016;27;20038;-85
2023/03/23 04:00:14;;;;;;;0.28;0.28;;;;;;;13.95;65.60;100078.47;5119751;28;20435;-85
2023/03/23 04:02:43;;;;;;;0.10;0.10;;;;;;;13.82;66.12;100091.50;5125284;28;20031;-85
2023/03/23 04:05:11;;;;;;;0.10;0.10;;;;;;;13.82;65.27;100077.31;5124436;28;20032;-84
2023/03/23 04:07:38;;;;;;;0.10;0.10;;;;;;;13.84;65.33;100083.44;5122200;27;20084;-84
2023/03/23 04:10:06;;;;;;;0.10;0.10;;;;;;;13.91;65.06;100092.88;5123628;28;20034;-82
2023/03/23 04:12:33;;;;;;;0.10;0.10;;;;;;;13.84;65.10;100096.75;5128596;28;20027;-83
2023/03/23 04:14:59;;;;;;;0.10;0.10;;;;;;;13.89;64.87;100087.63;5126765;28;20507;-83
2023/03/23 04:17:26;;;;;;;0.10;0.10;;;;;;;13.96;64.84;100087.34;5122267;27;20032;-83
2023/03/23 04:19:56;;;;;;;0.10;0.10;;;;;;;13.92;64.89;100099.94;5129881;28;20012;-84
2023/03/23 04:22:24;;;;;;;0.10;0.10;;;;;;;13.83;64.88;100098.56;5116902;28;20476;-84
2023/03/23 04:24:51;;;;;;;0.10;0.10;;;;;;;13.92;65.05;100107.94;5115215;28;20031;-83
2023/03/23 04:27:17;;;;;;;0.10;0.10;;;;;;;13.98;64.81;100096.13;5112766;28;20564;-83
2023/03/23 04:29:48;;;;;;;0.63;0.63;;;;;;;13.97;65.12;100105.91;5111447;28;20023;-84
2023/03/23 04:32:14;;;;;;;0.10;0.10;;;;;;;13.90;64.69;100118.63;5120363;28;20024;-82
2023/03/23 04:34:40;;;;;;;0.10;0.10;;;;;;;13.89;64.62;100116.03;5117995;28;20039;-82
2023/03/23 04:37:08;;;;;;;0.10;0.10;;;;;;;13.95;65.44;100114.91;5128372;28;20019;-83
2023/03/23 04:39:34;;;;;;;0.13;0.13;;;;;;;13.89;65.98;100116.94;5117377;28;20044;-84
2023/03/23 04:42:01;;;;;;;0.10;0.10;;;;;;;13.66;66.89;100135.72;5118091;28;20042;-86
2023/03/23 04:44:32;;;;;;;0.10;0.10;;;;;;;13.65;66.96;100142.84;5107376;28;20031;-83
2023/03/23 04:47:01;;;;;;;0.10;0.10;;;;;;;13.59;67.84;100141.31;5109258;28;20392;-84
2023/03/23 04:49:29;;;;;;;0.10;0.10;;;;;;;13.54;68.42;100137.97;5108537;28;20073;-84
2023/03/23 04:51:56;;;;;;;0.10;0.10;;;;;;;13.56;67.95;100152.09;5114982;27;20031;-83
2023/03/23 04:54:22;;;;;;;0.10;0.10;;;;;;;13.41;68.62;100152.75;5108590;28;20071;-83
2023/03/23 04:56:48;;;;;;;0.10;0.10;;;;;;;13.21;69.91;100167.72;5100968;28;20436;-82
2023/03/23 04:59:14;;;;;;;0.20;0.20;;;;;;;13.09;71.50;100154.94;5112503;28;20034;-81
2023/03/23 05:01:45;;;;;;;0.10;0.10;;;;;;;13.06;71.01;100163.03;5108643;28;20055;-81
2023/03/23 05:04:16;;;;;;;0.10;0.10;;;;;;;12.92;72.50;100153.84;5100546;28;20020;-84
2023/03/23 05:06:44;;;;;;;0.10;0.10;;;;;;;12.87;72.39;100153.19;5100556;27;20032;-85
2023/03/23 05:09:10;;;;;;;0.10;0.10;;;;;;;12.81;73.66;100157.88;5105607;28;20091;-85
2023/03/23 05:11:36;;;;;;;0.10;0.10;;;;;;;12.84;73.16;100157.75;5112697;28;20036;-84
2023/03/23 05:14:04;;;;;;;0.10;0.10;;;;;;;12.69;74.05;100154.78;5110161;28;20019;-83
2023/03/23 05:16:30;;;;;;;0.10;0.10;;;;;;;12.54;73.83;100160.72;5110007;28;20034;-83
2023/03/23 05:18:58;;;;;;;0.03;0.03;;;;;;;12.50;74.02;100152.00;5100690;28;20099;-84
2023/03/23 05:21:24;;;;;;;0.10;0.10;;;;;;;12.49;73.98;100155.56;5104773;27;20074;-85
2023/03/23 05:23:54;;;;;;;0.10;0.10;;;;;;;12.51;73.61;100166.13;5102869;28;20031;-85
2023/03/23 05:26:21;;;;;;;0.35;0.35;;;;;;;12.51;74.21;100161.69;5108784;28;20077;-85
2023/03/23 05:28:50;;;;;;;0.00;0.00;;;;;;;12.60;73.23;100156.00;5110361;28;20027;-84
2023/03/23 05:31:16;;;;;;;0.20;0.20;;;;;;;12.62;73.83;100164.78;5108930;28;20039;-85
2023/03/23 05:33:42;;;;;;;0.10;0.10;;;;;;;12.51;74.20;100167.00;5104958;28;20107;-85
2023/03/23 05:36:10;;;;;;;0.10;0.10;;;;;;;12.60;74.13;100177.25;5104418;28;20032;-85
2023/03/23 05:38:38;;;;;;;0.10;0.10;;;;;;;12.58;74.10;100192.41;5105266;28;20480;-85
2023/03/23 05:41:05;;;;;;;0.10;0.10;;;;;;;12.59;73.92;100180.84;5103012;28;20036;-85
2023/03/23 05:43:31;;;;;;;0.22;0.22;;;;;;;12.61;73.96;100189.63;5109169;28;20028;-85
2023/03/23 05:45:57;;;;;;;0.10;0.10;;;;;;;12.60;74.09;100182.59;5105446;28;20556;-84
2023/03/23 05:48:23;;;;;;;0.10;0.10;;;;;;;12.61;74.68;100194.94;5111761;28;20027;-85
2023/03/23 05:50:50;;;;;;;0.10;0.10;;;;;;;12.52;74.78;100184.66;5108634;28;20093;-85
2023/03/23 05:53:16;;;;;;;0.15;0.15;;;;;;;12.51;75.17;100192.69;5111261;28;20028;-83
2023/03/23 05:55:42;;;;;;;0.10;0.10;;;;;;;12.54;75.50;100189.94;5108263;28;20538;-83
2023/03/23 05:58:08;;;;;;;0.25;0.25;;;;;;;12.58;75.40;100202.16;5111593;28;20028;-82
2023/03/23 06:00:35;;;;;;;0.10;0.10;;;;;;;12.61;75.57;100194.06;5122136;28;20023;-83
2023/03/23 06:03:02;;;;;;;0.10;0.10;;;;;;;12.55;75.87;100204.97;5121859;27;20408;-82
2023/03/23 06:05:28;;;;;;;0.10;0.10;;;;;;;12.57;75.40;100227.00;5116162;27;20020;-82
2023/03/23 06:07:55;;;;;;;0.30;0.30;;;;;;;12.51;76.11;100216.59;5111019;27;20031;-82
2023/03/23 06:10:22;;;;;;;0.10;0.10;;;;;;;12.51;76.35;100213.94;5101153;28;20039;-82
2023/03/23 06:12:51;;;;;;;0.17;0.17;;;;;;;12.52;76.53;100216.53;5115288;28;20023;-84
2023/03/23 06:15:17;;;;;;;0.10;0.10;;;;;;;12.40;76.31;100215.22;5108119;27;20047;-84
2023/03/23 06:17:43;;;;;;;0.10;0.10;;;;;;;12.36;76.15;100215.41;5103250;28;20055;-82
2023/03/23 06:20:10;;;;;;;1.55;1.45;;;;;;;12.38;76.12;100214.41;5109882;27;20019;-81
2023/03/23 06:22:37;;;;;;;0.15;0.15;;;;;;;12.44;75.30;100237.25;5101888;28;20618;-81
2023/03/23 06:25:06;;;;;;;0.10;0.10;;;;;;;12.30;76.33;100233.31;5097308;28;20081;-82
2023/03/23 06:27:32;;;;;;;1.15;1.15;;;;;;;12.34;75.79;100228.75;5098666;28;20024;-83
2023/03/23 06:29:58;;;;;;;0.10;0.10;;;;;;;12.39;75.58;100234.75;5103288;27;20055;-81
2023/03/23 06:32:28;;;;;;;0.10;0.10;;;;;;;12.44;75.38;100240.75;5104918;27;20035;-81
2023/03/23 06:34:54;;;;;;;8.80;0.50;;;;;;;12.49;75.71;100255.69;5109877;27;20042;-79
2023/03/23 06:37:20;;;;;;;0.10;0.10;;;;;;;12.58;75.15;100237.56;5120601;28;20049;-82
2023/03/23 06:39:48;;;;;;;0.30;0.30;;;;;;;12.56;75.06;100244.75;5105833;28;20044;-82
2023/03/23 06:42:14;;;;;;;0.10;0.10;;;;;;;12.61;75.47;100249.88;5103834;28;20019;-83
2023/03/23 06:44:40;;;;;;;0.20;0.20;;;;;;;12.65;74.96;100255.94;5100049;28;20020;-83
2023/03/23 06:47:07;;;;;;;0.30;0.30;;;;;;;12.57;74.84;100245.59;5108083;28;20039;-83
2023/03/23 06:49:33;;;;;;;0.20;0.20;;;;;;;12.61;75.54;100250.75;5106051;28;20024;-81
2023/03/23 06:52:01;;;;;;;0.10;0.10;;;;;;;12.60;74.94;100238.38;5110130;27;20050;-83
2023/03/23 06:54:27;;;;;;;0.10;0.10;;;;;;;12.60;75.45;100251.69;5116392;28;20041;-83
2023/03/23 06:56:54;;;;;;;0.10;0.10;;;;;;;12.68;74.75;100258.50;5113059;28;20023;-82
2023/03/23 06:59:20;;;;;;;0.10;0.10;;;;;;;12.70;73.97;100257.50;5103693;28;20032;-81
2023/03/23 07:01:48;;;;;;;0.10;0.10;;;;;;;12.70;74.19;100251.34;5105082;28;20025;-82
2023/03/23 07:04:15;;;;;;;0.50;0.50;;;;;;;12.70;74.22;100256.66;5106963;28;20031;-84
2023/03/23 07:06:42;;;;;;;0.10;0.10;;;;;;;12.69;74.09;100250.47;5106610;28;20476;-83
2023/03/23 07:09:08;;;;;;;0.10;0.10;;;;;;;12.75;73.64;100260.84;5099216;28;20024;-82
2023/03/23 07:11:34;;;;;;;0.30;0.30;;;;;;;12.77;73.85;100252.81;5104891;28;20043;-84
2023/03/23 07:14:01;;;;;;;0.10;0.10;;;;;;;12.73;72.92;100256.53;5110890;28;20036;-84
2023/03/23 07:16:27;;;;;;;0.30;0.30;;;;;;;12.79;73.40;100261.59;5109656;28;20027;-84
2023/03/23 07:18:53;;;;;;;0.10;0.10;;;;;;;12.78;73.35;100273.16;5113638;28;20118;-83
2023/03/23 07:21:19;;;;;;;0.13;0.13;;;;;;;12.73;72.87;100262.69;5109859;28;20024;-83
2023/03/23 07:23:46;;;;;;;0.47;0.47;;;;;;;12.77;73.09;100258.13;5111081;28;20027;-83
2023/03/23 07:26:13;;;;;;;0.10;0.10;;;;;;;12.78;72.96;100291.78;5111245;28;20106;-83
2023/03/23 07:28:40;;;;;;;0.20;0.20;;;;;;;12.82;73.30;100288.06;5104942;28;20032;-83
2023/03/23 07:31:08;;;;;;;0.57;0.57;;;;;;;12.84;73.67;100278.25;5111238;28;20035;-83
2023/03/23 07:33:35;;;;;;;0.10;0.10;;;;;;;12.88;73.71;100265.69;5115991;28;20028;-84
2023/03/23 07:36:02;;;;;;;0.10;0.10;;;;;;;12.92;73.55;100262.88;5111876;28;20142;-83
2023/03/23 07:38:29;;;;;;;0.30;0.30;;;;;;;13.01;73.19;100261.66;5116596;28;20059;-83
2023/03/23 07:40:57;;;;;;;0.10;0.10;;;;;;;13.05;73.23;100262.38;5117096;28;20047;-83
2023/03/23 07:43:23;;;;;;;1.65;1.55;;;;;;;12.98;73.31;100260.91;5116345;28;20028;-83
2023/03/23 07:45:49;;;;;;;0.85;0.55;;;;;;;12.93;73.14;100272.59;5118610;28;20081;-82
2023/03/23 07:48:15;;;;;;;0.10;0.10;;;;;;;12.84;73.31;100280.91;5113530;28;20034;-83
2023/03/23 07:50:44;;;;;;;0.10;0.10;;;;;;;12.94;72.83;100279.63;5118756;28;20398;-82
2023/03/23 07:53:11;;;;;;;0.10;0.10;;;;;;;12.92;73.29;100288.56;5116441;28;20036;-83
2023/03/23 07:55:37;;;;;;;0.28;0.28;;;;;;;13.00;73.37;100288.31;5117394;27;20032;-83
2023/03/23 07:58:03;;;;;;;0.10;0.10;;;;;;;13.03;73.75;100296.16;5115589;27;20024;-83
2023/03/23 08:00:30;;;;;;;0.10;0.10;;;;;;;13.17;73.32;100288.50;5121977;27;20034;-83
2023/03/23 08:02:57;;;;;;;6.00;1.30;;;;;;;13.12;72.78;100293.09;5121173;27;20023;-83
2023/03/23 08:05:26;;;;;;;0.10;0.10;;;;;;;13.23;73.13;100298.00;5121954;27;20035;-83
2023/03/23 08:07:54;;;;;;;1.20;1.20;;;;;;;13.20;72.75;100292.84;5111034;28;20056;-83
2023/03/23 08:10:21;;;;;;;1.67;1.65;;;;;;;13.23;73.10;100298.91;5115870;28;20548;-83
2023/03/23 08:12:52;;;;;;;0.10;0.10;;;;;;;13.27;72.88;100300.50;5119301;28;20024;-83
2023/03/23 08:15:21;;;;;;;0.10;0.10;;;;;;;13.27;72.86;100305.81;5119101;28;20031;-83
2023/03/23 08:17:47;;;;;;;1.45;1.10;;;;;;;13.33;72.60;100304.69;5113446;27;20472;-83
2023/03/23 08:20:15;;;;;;;0.10;0.10;;;;;;;13.26;73.03;100298.75;5121894;27;20091;-83
2023/03/23 08:22:44;;;;;;;0.10;0.10;;;;;;;13.37;73.05;100305.44;5120174;27;20059;-83
2023/03/23 08:25:14;;;;;;;0.38;0.38;;;;;;;13.48;72.98;100302.38;5118971;28;20049;-83
2023/03/23 08:27:43;;;;;;;0.10;0.10;;;;;;;13.59;72.45;100314.34;5114790;28;20028;-83
2023/03/23 08:30:11;;;;;;;0.63;0.63;;;;;;;13.69;71.66;100319.28;5117123;28;20027;-83
2023/03/23 08:32:39;;;;;;;0.10;0.10;;;;;;;13.69;71.51;100312.13;5119472;28;20387;-83
2023/03/23 08:35:06;;;;;;;0.20;0.20;;;;;;;13.65;71.14;100315.00;5115362;27;20448;-84
2023/03/23 08:37:33;;;;;;;0.10;0.10;;;;;;;13.62;71.31;100321.31;5114032;28;20118;-83
2023/03/23 08:39:59;;;;;;;0.20;0.20;;;;;;;13.71;70.55;100317.41;5118550;28;20032;-81
2023/03/23 08:42:26;;;;;;;0.10;0.10;;;;;;;13.82;70.48;100323.16;5120198;28;20384;-82
2023/03/23 08:44:52;;;;;;;0.15;0.15;;;;;;;13.75;69.63;100333.19;5112310;27;20024;-82
2023/03/23 08:47:19;;;;;;;0.10;0.10;;;;;;;13.82;68.60;100331.16;5116275;28;20040;-81
2023/03/23 08:49:45;;;;;;;0.10;0.10;;;;;;;13.93;69.10;100327.16;5118948;28;20110;-80
2023/03/23 08:52:11;;;;;;;0.10;0.10;;;;;;;13.99;68.35;100330.41;5118309;27;20035;-82
2023/03/23 08:54:38;;;;;;;0.15;0.15;;;;;;;14.05;67.41;100343.47;5117649;28;20050;-82
2023/03/23 08:57:04;;;;;;;0.10;0.10;;;;;;;14.06;67.06;100333.72;5114595;27;20149;-83
2023/03/23 08:59:31;;;;;;;0.13;0.13;;;;;;;14.10;66.57;100337.97;5109333;28;20069;-83
2023/03/23 09:01:57;;;;;;;0.10;0.10;;;;;;;14.11;66.23;100334.38;5114146;28;20535;-83
2023/03/23 09:04:23;;;;;;;0.10;0.10;;;;;;;14.14;66.86;100331.56;5115222;28;20043;-83
2023/03/23 09:06:49;;;;;;;0.20;0.20;;;;;;;14.07;66.53;100322.97;5122323;27;20031;-83
2023/03/23 09:09:15;;;;;;;0.95;0.95;;;;;;;14.12;66.68;100336.09;5117392;28;20034;-82
2023/03/23 09:11:41;;;;;;;0.10;0.10;;;;;;;14.00;65.78;100337.47;5117019;27;20078;-82
2023/03/23 09:14:08;;;;;;;0.10;0.10;;;;;;;14.00;65.01;100339.28;5115355;28;20039;-83
2023/03/23 09:16:34;;;;;;;0.10;0.10;;;;;;;14.07;65.22;100324.78;5108043;28;20031;-82
2023/03/23 09:19:01;;;;;;;0.20;0.20;;;;;;;14.11;64.82;100326.38;5110621;27;20048;-82
2023/03/23 09:21:28;;;;;;;0.20;0.20;;;;;;;14.14;64.06;100339.56;5113693;28;20024;-82
2023/03/23 09:23:58;;;;;;;0.32;0.32;;;;;;;14.19;63.84;100332.25;5113735;27;20114;-82
2023/03/23 09:26:26;;;;;;;0.10;0.10;;;;;;;14.23;63.22;100332.97;5112024;28;20496;-83
2023/03/23 09:28:52;;;;;;;0.10;0.10;;;;;;;14.30;64.30;100333.56;5111644;28;20482;-82
2023/03/23 09:31:20;;;;;;;0.20;0.20;;;;;;;14.26;63.56;100332.00;5108330;28;20070;-82
2023/03/23 09:33:46;;;;;;;0.10;0.10;;;;;;;14.35;63.11;100334.22;5112124;28;20034;-82
2023/03/23 09:36:16;;;;;;;0.10;0.10;;;;;;;14.35;62.82;100348.41;5108193;27;20081;-81
2023/03/23 09:38:45;;;;;;;0.10;0.10;;;;;;;14.42;62.18;100341.03;5116908;28;20034;-82
2023/03/23 09:47:11;;;;;;;0.10;0.10;;;;;;;14.76;61.26;100352.88;5066508;28;20396;-81
2023/03/23 09:49:52;;;;;;;0.10;0.10;;;;;;;14.67;60.97;100369.31;5052771;28;20124;-81
2023/03/23 09:52:19;;;;;;;3.30;2.97;;;;;;;14.76;60.89;100360.03;5057050;28;20025;-81
2023/03/23 09:54:51;;;;;;;0.55;0.55;;;;;;;14.79;60.68;100355.41;5056527;28;20040;-82
2023/03/23 09:57:28;;;;;;;0.20;0.20;;;;;;;14.87;60.35;100371.91;5046896;28;20037;-81
2023/03/23 10:00:21;;;;;;;0.10;0.10;;;;;;;14.93;59.09;100378.78;5069107;28;20044;-81
2023/03/23 10:03:07;;;;;;;;;;;;;;;15.03;58.93;100365.91;5065611;28;20517;-81
2023/03/23 10:05:40;;;;;;;0.10;0.10;;;;;;;14.84;59.04;100377.41;5056069;28;19909;-82
2023/03/23 10:08:13;;;;;;;0.10;0.10;;;;;;;14.87;59.08;100387.06;5055705;28;20037;-81
2023/03/23 10:11:02;;;;;;;0.63;0.63;;;;;;;15.00;59.16;100377.59;5051306;28;20026;-81
2023/03/23 10:16:34;;;;;;;0.10;0.10;;;;;;;15.33;58.38;100384.09;5118140;27;1180054;-82
2023/03/23 10:19:30;;;;;;;8.88;0.43;;;;;;;15.45;58.59;100382.63;5115306;28;20028;-81
2023/03/23 10:22:03;;;;;;;0.10;0.10;;;;;;;15.50;57.43;100376.13;5115141;28;20024;-81
2023/03/23 10:24:38;;;;;;;23.60;1.23;;;;;;;15.74;56.82;100385.69;5115128;28;20012;-81
2023/03/23 10:39:10;;;;;;;0.10;0.10;;;;;;;15.87;55.56;100392.19;5068157;28;20457;-82
2023/03/23 10:41:38;;;;;;;0.52;0.52;;;;;;;15.95;54.37;100379.31;5043255;28;20107;-82
2023/03/23 10:44:25;;;;;;;0.68;0.68;;;;;;;15.98;54.17;100375.63;5049015;28;20021;-82
2023/03/23 10:49:41;;;;;;;2.08;1.98;;;;;;;16.24;53.66;100382.34;5072902;28;20475;-80
2023/03/23 10:54:55;;;;;;;0.10;0.10;;;;;;;16.43;51.79;100392.06;5117652;27;1203856;-81
2023/03/23 10:57:28;;;;;;;1.17;1.13;;;;;;;16.44;52.19;100389.31;5128991;28;20028;-82
2023/03/23 11:00:05;;;;;;;0.10;0.10;;;;;;;16.47;52.17;100381.16;5110137;28;20035;-82
2023/03/23 11:02:37;;;;;;;0.10;0.10;;;;;;;16.22;52.63;100391.38;5113448;28;20024;-82
2023/03/23 11:05:16;;;;;;;0.30;0.30;;;;;;;16.36;53.33;100380.81;5114552;28;20020;-81
2023/03/23 11:07:57;;;;;;;0.45;0.45;;;;;;;16.37;53.28;100395.91;5111165;28;20046;-83
2023/03/23 11:10:27;;;;;;;1.10;1.10;;;;;;;16.38;52.35;100378.09;5111248;28;20127;-82
2023/03/23 11:12:58;;;;;;;0.17;0.17;;;;;;;16.37;52.93;100377.22;5115002;28;20074;-82
2023/03/23 11:15:36;;;;;;;0.43;0.43;;;;;;;16.49;52.36;100376.56;5111624;28;20027;-81
2023/03/23 11:18:07;;;;;;;0.17;0.17;;;;;;;16.61;51.80;100374.19;5107222;28;20069;-82
2023/03/23 11:20:39;;;;;;;0.47;0.47;;;;;;;16.53;52.07;100368.41;5109927;28;20032;-81
2023/03/23 11:23:20;;;;;;;0.10;0.10;;;;;;;16.31;52.04;100372.19;5106442;28;20039;-81
2023/03/23 11:25:55;;;;;;;0.10;0.10;;;;;;;16.29;52.84;100384.78;5114429;28;20429;-81
2023/03/23 11:28:21;;;;;;;0.10;0.10;;;;;;;16.05;52.57;100379.72;5109056;28;20055;-84
2023/03/23 11:30:48;;;;;;;0.10;0.10;;;;;;;15.97;52.89;100380.09;5107785;28;20027;-82
2023/03/23 11:33:15;;;;;;;0.10;0.10;;;;;;;15.81;53.02;100390.66;5122884;28;20059;-83
2023/03/23 11:35:45;;;;;;;0.10;0.10;;;;;;;15.85;53.84;100380.72;5129792;28;20032;-81
2023/03/23 11:38:22;;;;;;;0.10;0.10;;;;;;;15.73;53.98;100392.00;5127903;28;20103;-82
2023/03/23 11:40:51;;;;;;;0.10;0.10;;;;;;;15.66;54.32;100388.72;5124432;28;20032;-81
2023/03/23 11:43:22;;;;;;;0.10;0.10;;;;;;;15.58;54.41;100369.56;5125620;27;20004;-81
2023/03/23 11:46:01;;;;;;;0.10;0.10;;;;;;;15.70;54.56;100371.59;5116785;28;20024;-81
2023/03/23 11:48:57;;;;;;;0.10;0.10;;;;;;;15.84;55.05;100379.84;5124675;28;20015;-82
2023/03/23 11:54:12;;;;;;;0.10;0.10;;;;;;;16.20;54.43;100382.56;5116294;27;1155649;-83
2023/03/23 11:57:06;;;;;;;0.20;0.20;;;;;;;16.40;52.12;100377.06;5108813;27;20039;-83
2023/03/23 11:59:35;;;;;;;0.30;0.30;;;;;;;16.45;51.63;100375.00;5114161;28;20031;-84
2023/03/23 12:02:24;;;;;;;0.10;0.10;;;;;;;16.73;51.96;100394.94;5110582;28;20012;-85
2023/03/23 12:05:10;;;;;;;0.10;0.10;;;;;;;16.78;51.01;100376.84;5104933;28;20032;-84
2023/03/23 12:13:40;;;;;;;0.20;0.20;;;;;;;17.24;51.33;100365.47;5075660;28;20138;-84
2023/03/23 12:19:18;;;;;;;0.10;0.10;;;;;;;17.48;49.65;100364.19;5056485;28;20400;-85
2023/03/23 12:24:36;;;;;;;0.20;0.20;;;;;;;17.35;50.22;100354.16;5082839;27;1921389;-83
2023/03/23 12:32:43;;;;;;;0.10;0.10;;;;;;;16.97;50.12;100368.72;5110690;27;1177005;-83
2023/03/23 12:38:13;;;;;;;0.10;0.10;;;;;;;17.07;50.43;100369.09;5119535;27;20351;-84